Asotin, Washington
Current Conditions -  °F | °C
As of 7:56 PM on Sunday 25 Jan 2015 (Local Time) from KLWS Reporting Station
Clear Clear  
Wind Chill: 54°   Ceiling: Unl
Heat Index: 54°   Visibility: 10mi
Dew Point: 38°   Wind: 8mph
Humidity: 55%   Direction: 120°ESE
Pressure: 30.17"   Gusts: 18mph
Location:  46.34°N, 117.05°W
Report Text: KLWS 260356Z 12007G16KT 10SM CLR 12/03 A3017 RMK AO2 SLP221 T01220033
Loading
Personal Weather Stations






























Interactive Weather Map New forecast layout! Learn more

10-Day Weather Forecast

Advertisements
Track Severe Weather on mobile